Impacts METAR Board
IDs:

KDTW - Detroit Metro/Wayne, MI, US

Updated at: 2200 UTC 23 Oct 2019
Potential Impact None Slight Moderate High
Time 23/10Z 23/11Z 23/12Z 23/13Z 23/14Z 23/15Z 23/16Z 23/17Z 23/18Z 23/19Z 23/20Z 23/21Z 23/22Z
Temp44 43 43 43 46 49 52 55 57 59 60 61 59
Dewpt37 35 34 34 34 34 34 34 33 34 35 36 36
Altim29.84 29.86 29.88 29.91 29.94 29.95 29.96 29.97 29.97 29.96 29.97 29.97 29.98
VIS10 10 10 10 10 10 10 10 10 10 10 10 10
CIG-- -- -- -- -- -- -- -- -- -- -- -- 120
CoverCLRCLRCLRCLRCLRFEWFEWFEWFEWFEWFEWSCTBKN
FltCatVFRVFRVFRVFRVFRVFRVFRVFRVFRVFRVFRVFRVFR
WX--------------------------
WDir220220220230230230230240240230230220230
WSpd11 12 13 12 17 15 18 17 19 17 17 15 11
WGst-- -- -- -- -- 25 28 26 30 25 27 24 --
Raw hourly METARs
KDTW 230953Z 22011KT 10SM CLR 07/03 A2984 RMK AO2 SLP106 T00670028
KDTW 231053Z 22012KT 10SM CLR 06/02 A2986 RMK AO2 SLP113 T00610017
KDTW 231153Z 22013KT 10SM CLR 06/01 A2988 RMK AO2 SLP119 70004 T00610011 10078 20061 51020
KDTW 231253Z 23012KT 10SM CLR 06/01 A2991 RMK AO2 SLP131 T00610011
KDTW 231353Z 23017KT 10SM CLR 08/01 A2994 RMK AO2 SLP141 T00780011
KDTW 231453Z 23015G25KT 10SM FEW200 09/01 A2995 RMK AO2 SLP144 T00940011 51025 $
KDTW 231553Z 23018G28KT 10SM FEW230 11/01 A2996 RMK AO2 PK WND 23031/1530 SLP148 T01110011 $
KDTW 231653Z 24017G26KT 10SM FEW250 13/01 A2997 RMK AO2 PK WND 24030/1629 SLP151 T01280011 $
KDTW 231753Z 24019G30KT 10SM FEW040 14/01 A2997 RMK AO2 PK WND 23031/1728 SLP150 T01390006 10139 20061 50006
KDTW 231853Z 23017G25KT 10SM FEW060 15/01 A2996 RMK AO2 PK WND 25030/1754 SLP147 T01500011
KDTW 231953Z 23017G27KT 10SM FEW060 FEW130 16/02 A2997 RMK AO2 PK WND 21028/1900 SLP148 T01560017
KDTW 232053Z 22015G24KT 10SM FEW060 SCT130 16/02 A2997 RMK AO2 PK WND 23029/1959 SLP149 T01610022 55001
KDTW 232153Z 23011KT 10SM FEW065 BKN120 15/02 A2998 RMK AO2 SLP153 T01500022



Page loaded:  22:57 UTC  |   03:57 PM Pacific  |   04:57 PM Mountain  |   05:57 PM Central  |   06:57 PM Eastern

 

ADVISORIES

FORECASTS

FORECASTS

OBSERVATIONS

USER TOOLS

ABOUT US